Time;durP1;ratioP1;P1;durP2;ratioP2;P2;SDS_P1;SDS_P2;PMS_P1;PMS_P2;Temp;Humidity;BMP_temperature;BMP_pressure;BME280_temperature;BME280_humidity;BME280_pressure;Samples;Min_cycle;Max_cycle;Signal;HPM_P1;HPM_P2
2023/11/27 00:00:37;;;;;;;9.30;6.20;;;;;;;;;;4973342;28;20031;-60
2023/11/27 00:03:03;;;;;;;10.30;6.00;;;;;;;;;;4973028;28;20038;-61
2023/11/27 00:05:29;;;;;;;9.97;6.33;;;;;;;;;;4973177;28;20038;-60
2023/11/27 00:07:55;;;;;;;9.53;6.47;;;;;;;;;;4972494;28;20046;-60
2023/11/27 00:10:21;;;;;;;11.07;7.33;;;;;;;;;;4973123;28;20027;-60
2023/11/27 00:12:48;;;;;;;8.73;6.43;;;;;;;;;;4971985;28;20102;-61
2023/11/27 00:15:14;;;;;;;10.73;7.27;;;;;;;;;;4973224;28;20437;-60
2023/11/27 00:17:40;;;;;;;9.40;6.97;;;;;;;;;;4972963;28;20023;-60
2023/11/27 00:20:09;;;;;;;10.27;8.07;;;;;;;;;;4973305;28;20441;-60
2023/11/27 00:22:35;;;;;;;16.77;8.20;;;;;;;;;;4972755;28;20085;-60
2023/11/27 00:25:01;;;;;;;12.70;8.40;;;;;;;;;;4974763;28;20027;-61
2023/11/27 00:27:27;;;;;;;10.53;7.93;;;;;;;;;;4977263;28;20165;-60
2023/11/27 00:29:53;;;;;;;11.47;8.10;;;;;;;;;;4982644;28;20038;-60
2023/11/27 00:32:19;;;;;;;12.33;8.03;;;;;;;;;;4981788;28;20038;-60
2023/11/27 00:34:46;;;;;;;8.63;7.47;;;;;;;;;;4980879;28;20033;-60
2023/11/27 00:37:12;;;;;;;9.73;7.47;;;;;;;;;;4975617;28;20019;-61
2023/11/27 00:39:37;;;;;;;10.67;7.97;;;;;;;;;;4972348;28;20034;-60
2023/11/27 00:42:04;;;;;;;12.83;8.10;;;;;;;;;;4972609;28;20038;-61
2023/11/27 00:44:30;;;;;;;13.97;7.77;;;;;;;;;;4972534;28;20034;-61
2023/11/27 00:46:56;;;;;;;10.83;7.93;;;;;;;;;;4972852;28;20023;-61
2023/11/27 00:49:22;;;;;;;10.37;7.73;;;;;;;;;;4972470;28;20093;-61
2023/11/27 00:51:48;;;;;;;9.90;7.20;;;;;;;;;;4972385;28;20027;-59
2023/11/27 00:54:14;;;;;;;10.20;7.67;;;;;;;;;;4972028;28;20073;-61
2023/11/27 00:56:40;;;;;;;11.30;7.33;;;;;;;;;;4955052;28;20122;-60
2023/11/27 00:59:07;;;;;;;11.93;8.23;;;;;;;;;;4972355;28;20042;-60
2023/11/27 01:01:33;;;;;;;10.03;7.07;;;;;;;;;;4972605;28;20031;-60
2023/11/27 01:03:59;;;;;;;10.43;7.90;;;;;;;;;;4972485;28;20073;-60
2023/11/27 01:06:25;;;;;;;10.70;7.60;;;;;;;;;;4972230;28;20299;-60
2023/11/27 01:08:51;;;;;;;9.77;7.97;;;;;;;;;;4972450;28;20027;-60
2023/11/27 01:11:17;;;;;;;12.00;7.87;;;;;;;;;;4972309;28;20102;-60
2023/11/27 01:13:43;;;;;;;11.77;8.10;;;;;;;;;;4972306;28;20077;-59
2023/11/27 01:16:09;;;;;;;11.13;7.80;;;;;;;;;;4972126;28;20023;-59
2023/11/27 01:18:35;;;;;;;12.67;8.60;;;;;;;;;;4972394;28;20057;-60
2023/11/27 01:21:01;;;;;;;12.10;8.23;;;;;;;;;;4972230;28;20043;-60
2023/11/27 01:23:27;;;;;;;12.50;8.40;;;;;;;;;;4972346;28;20034;-60
2023/11/27 01:25:53;;;;;;;13.40;8.50;;;;;;;;;;4972173;28;20039;-60
2023/11/27 01:28:19;;;;;;;8.90;8.00;;;;;;;;;;4972116;28;20038;-60
2023/11/27 01:30:45;;;;;;;10.37;7.47;;;;;;;;;;4972037;28;20043;-60
2023/11/27 01:33:12;;;;;;;10.97;8.23;;;;;;;;;;4954804;28;20035;-60
2023/11/27 01:35:38;;;;;;;9.23;7.70;;;;;;;;;;4978116;28;20019;-59
2023/11/27 01:38:04;;;;;;;11.57;8.40;;;;;;;;;;4971885;28;20053;-60
2023/11/27 01:40:30;;;;;;;11.07;8.07;;;;;;;;;;4975481;28;20031;-60
2023/11/27 01:42:56;;;;;;;9.70;8.30;;;;;;;;;;4972819;28;20097;-60
2023/11/27 01:45:22;;;;;;;10.53;7.70;;;;;;;;;;4971866;28;20477;-59
2023/11/27 01:47:49;;;;;;;11.27;8.30;;;;;;;;;;4970449;28;20176;-60
2023/11/27 01:50:15;;;;;;;10.87;8.50;;;;;;;;;;4953593;28;20049;-59
2023/11/27 01:52:41;;;;;;;11.37;8.50;;;;;;;;;;4974911;28;20196;-59
2023/11/27 01:55:07;;;;;;;11.50;8.60;;;;;;;;;;4975146;28;20030;-59
2023/11/27 01:57:34;;;;;;;11.80;8.83;;;;;;;;;;4965414;28;20114;-60
2023/11/27 02:00:03;;;;;;;9.67;8.50;;;;;;;;;;4961345;28;20034;-60
2023/11/27 02:02:30;;;;;;;12.27;8.03;;;;;;;;;;4962840;28;20125;-60
2023/11/27 02:04:56;;;;;;;12.27;8.87;;;;;;;;;;4969451;28;20357;-59
2023/11/27 02:07:23;;;;;;;12.50;8.20;;;;;;;;;;4967447;28;20035;-59
2023/11/27 02:09:49;;;;;;;10.87;7.43;;;;;;;;;;4974615;28;20031;-59
2023/11/27 02:12:15;;;;;;;10.73;7.57;;;;;;;;;;4974804;28;20030;-59
2023/11/27 02:14:41;;;;;;;8.97;8.07;;;;;;;;;;4974548;28;20030;-59
2023/11/27 02:17:07;;;;;;;11.40;7.77;;;;;;;;;;4974900;28;20321;-58
2023/11/27 02:19:33;;;;;;;9.20;7.70;;;;;;;;;;4972914;28;20404;-59
2023/11/27 02:21:59;;;;;;;12.33;7.73;;;;;;;;;;4974309;28;20054;-60
2023/11/27 02:24:25;;;;;;;9.53;7.73;;;;;;;;;;4971813;28;20119;-60
2023/11/27 02:26:51;;;;;;;10.17;7.30;;;;;;;;;;4968417;28;20130;-59
2023/11/27 02:29:17;;;;;;;9.10;7.83;;;;;;;;;;4963599;28;20773;-59
2023/11/27 02:31:43;;;;;;;8.33;7.07;;;;;;;;;;4954875;28;20051;-59
2023/11/27 02:34:09;;;;;;;10.87;7.80;;;;;;;;;;4972531;28;20025;-60
2023/11/27 02:36:38;;;;;;;11.00;8.17;;;;;;;;;;4973156;28;20511;-60
2023/11/27 02:39:06;;;;;;;11.17;7.80;;;;;;;;;;4961041;28;20469;-60
2023/11/27 02:41:33;;;;;;;10.20;8.27;;;;;;;;;;4974112;28;20154;-60
2023/11/27 02:43:59;;;;;;;10.27;8.40;;;;;;;;;;4973900;28;20035;-59
2023/11/27 02:46:25;;;;;;;11.70;7.60;;;;;;;;;;4973588;28;20025;-59
2023/11/27 02:48:51;;;;;;;9.07;7.37;;;;;;;;;;4973993;28;20034;-59
2023/11/27 02:51:20;;;;;;;9.53;7.60;;;;;;;;;;4973970;28;20580;-59
2023/11/27 02:53:46;;;;;;;10.23;7.87;;;;;;;;;;4973873;28;20379;-59
2023/11/27 02:56:13;;;;;;;10.40;7.03;;;;;;;;;;4973866;28;20023;-59
2023/11/27 02:58:39;;;;;;;13.70;7.70;;;;;;;;;;4973244;28;20033;-59
2023/11/27 03:01:07;;;;;;;10.23;7.60;;;;;;;;;;4972444;28;20462;-59
2023/11/27 03:03:33;;;;;;;8.87;7.17;;;;;;;;;;4972787;28;20046;-59
2023/11/27 03:05:59;;;;;;;10.37;7.27;;;;;;;;;;4970711;28;20050;-59
2023/11/27 03:08:25;;;;;;;8.80;7.13;;;;;;;;;;4946395;28;20105;-59
2023/11/27 03:10:51;;;;;;;8.93;7.07;;;;;;;;;;4974180;28;20162;-60
2023/11/27 03:13:18;;;;;;;11.43;6.80;;;;;;;;;;4974141;28;20096;-59
2023/11/27 03:15:44;;;;;;;9.70;7.10;;;;;;;;;;4974277;28;20148;-59
2023/11/27 03:18:10;;;;;;;9.30;6.83;;;;;;;;;;4974158;28;20027;-60
2023/11/27 03:20:36;;;;;;;7.97;6.80;;;;;;;;;;4974126;28;20049;-59
2023/11/27 03:23:02;;;;;;;9.60;6.90;;;;;;;;;;4973606;28;20477;-60
2023/11/27 03:25:28;;;;;;;8.40;6.30;;;;;;;;;;4973972;28;20034;-60
2023/11/27 03:27:54;;;;;;;9.13;6.83;;;;;;;;;;4973555;28;20030;-60
2023/11/27 03:30:21;;;;;;;8.53;6.80;;;;;;;;;;4973620;28;20046;-60
2023/11/27 03:32:47;;;;;;;10.07;6.93;;;;;;;;;;4973812;28;20559;-60
2023/11/27 03:35:14;;;;;;;9.37;6.63;;;;;;;;;;4973548;28;20465;-60
2023/11/27 03:37:40;;;;;;;9.93;6.33;;;;;;;;;;4956275;28;20035;-59
2023/11/27 03:40:07;;;;;;;7.87;5.37;;;;;;;;;;4973684;28;20025;-60
2023/11/27 03:42:33;;;;;;;6.53;5.90;;;;;;;;;;4973645;28;20022;-60
2023/11/27 03:44:59;;;;;;;8.27;6.13;;;;;;;;;;4973206;28;20029;-60
2023/11/27 03:47:25;;;;;;;10.20;6.17;;;;;;;;;;4973458;28;20027;-60
2023/11/27 03:49:51;;;;;;;8.33;5.93;;;;;;;;;;4973532;28;20030;-60
2023/11/27 03:52:17;;;;;;;10.00;6.17;;;;;;;;;;4973315;28;20023;-60
2023/11/27 03:54:43;;;;;;;8.00;6.03;;;;;;;;;;4973718;28;20023;-60
2023/11/27 03:57:09;;;;;;;7.37;6.27;;;;;;;;;;4973568;28;20019;-59
2023/11/27 03:59:36;;;;;;;7.50;6.30;;;;;;;;;;4973323;28;20065;-59
2023/11/27 04:02:02;;;;;;;7.83;6.57;;;;;;;;;;4972981;28;20026;-59
2023/11/27 04:04:28;;;;;;;11.60;6.83;;;;;;;;;;4973147;28;20058;-60
2023/11/27 04:06:54;;;;;;;9.10;6.07;;;;;;;;;;4972231;28;20035;-60
2023/11/27 04:09:20;;;;;;;7.33;6.23;;;;;;;;;;4960751;28;20049;-60
2023/11/27 04:11:48;;;;;;;8.20;6.20;;;;;;;;;;4973110;28;20026;-60
2023/11/27 04:14:14;;;;;;;8.30;6.50;;;;;;;;;;4972577;28;20412;-60
2023/11/27 04:16:40;;;;;;;7.63;6.13;;;;;;;;;;4972647;28;20125;-60
2023/11/27 04:19:06;;;;;;;9.70;6.83;;;;;;;;;;4973029;28;20448;-60
2023/11/27 04:21:32;;;;;;;7.97;6.47;;;;;;;;;;4973032;28;20057;-60
2023/11/27 04:24:00;;;;;;;8.83;6.53;;;;;;;;;;4959102;28;20062;-60
2023/11/27 04:26:26;;;;;;;10.93;6.40;;;;;;;;;;4972760;28;20469;-59
2023/11/27 04:28:52;;;;;;;7.07;5.93;;;;;;;;;;4973127;28;20030;-60
2023/11/27 04:31:18;;;;;;;8.53;6.17;;;;;;;;;;4972550;28;20065;-59
2023/11/27 04:33:44;;;;;;;6.73;6.07;;;;;;;;;;4972560;28;20042;-60
2023/11/27 04:36:10;;;;;;;8.73;6.50;;;;;;;;;;4972798;28;20027;-60
2023/11/27 04:38:36;;;;;;;11.23;6.30;;;;;;;;;;4973079;28;20106;-60
2023/11/27 04:41:02;;;;;;;10.23;6.03;;;;;;;;;;4972853;28;20434;-60
2023/11/27 04:43:28;;;;;;;8.10;5.93;;;;;;;;;;4972624;28;20113;-60
2023/11/27 04:45:55;;;;;;;8.40;5.20;;;;;;;;;;4972570;28;20080;-60
2023/11/27 04:48:21;;;;;;;8.90;5.67;;;;;;;;;;4972282;28;20033;-60
2023/11/27 04:50:48;;;;;;;7.57;6.07;;;;;;;;;;4972680;28;20015;-60
2023/11/27 04:53:14;;;;;;;8.60;6.43;;;;;;;;;;4972558;28;20113;-60
2023/11/27 04:55:40;;;;;;;8.37;6.10;;;;;;;;;;4954839;28;20451;-60
2023/11/27 04:58:06;;;;;;;8.33;6.13;;;;;;;;;;4972620;28;20037;-59
2023/11/27 05:00:32;;;;;;;9.37;5.63;;;;;;;;;;4972409;28;20027;-60
2023/11/27 05:02:58;;;;;;;10.63;6.07;;;;;;;;;;4972475;28;20038;-59
2023/11/27 05:05:24;;;;;;;10.17;6.27;;;;;;;;;;4972275;28;20488;-59
2023/11/27 05:07:50;;;;;;;10.53;6.30;;;;;;;;;;4972390;28;20055;-60
2023/11/27 05:10:16;;;;;;;8.50;6.73;;;;;;;;;;4955208;28;20022;-58
2023/11/27 05:12:42;;;;;;;7.80;6.80;;;;;;;;;;4972531;28;20042;-59
2023/11/27 05:15:08;;;;;;;8.40;6.20;;;;;;;;;;4954985;28;20015;-59
2023/11/27 05:17:34;;;;;;;5.70;5.17;;;;;;;;;;4972224;28;20057;-60
2023/11/27 05:20:01;;;;;;;7.20;5.40;;;;;;;;;;4971991;28;20027;-58
2023/11/27 05:22:27;;;;;;;7.33;5.77;;;;;;;;;;4971033;28;20122;-59
2023/11/27 05:24:53;;;;;;;8.03;5.50;;;;;;;;;;4973615;28;20113;-60
2023/11/27 05:27:18;;;;;;;8.60;6.03;;;;;;;;;;4975636;28;20110;-60
2023/11/27 05:29:44;;;;;;;7.87;6.17;;;;;;;;;;4975725;28;20031;-59
2023/11/27 05:32:11;;;;;;;7.93;6.33;;;;;;;;;;4958512;28;20480;-60
2023/11/27 05:34:38;;;;;;;10.50;6.37;;;;;;;;;;4975595;28;20022;-59
2023/11/27 05:37:08;;;;;;;10.83;6.53;;;;;;;;;;4975941;28;20023;-59
2023/11/27 05:39:35;;;;;;;7.93;6.37;;;;;;;;;;4975969;28;20037;-60
2023/11/27 05:42:02;;;;;;;8.47;6.37;;;;;;;;;;4972513;28;20033;-59
2023/11/27 05:44:28;;;;;;;6.73;5.43;;;;;;;;;;4975663;28;20373;-60
2023/11/27 05:46:54;;;;;;;9.03;6.47;;;;;;;;;;4975307;28;20026;-59
2023/11/27 05:49:20;;;;;;;9.67;6.50;;;;;;;;;;4975738;28;20040;-60
2023/11/27 05:51:46;;;;;;;7.27;6.03;;;;;;;;;;4975325;28;20473;-59
2023/11/27 05:54:12;;;;;;;8.00;6.43;;;;;;;;;;4975539;28;20137;-59
2023/11/27 05:56:38;;;;;;;9.67;6.07;;;;;;;;;;4974470;28;20110;-59
2023/11/27 05:59:06;;;;;;;9.00;6.23;;;;;;;;;;4975810;28;20117;-59
2023/11/27 06:01:32;;;;;;;8.77;6.27;;;;;;;;;;4975461;28;20106;-59
2023/11/27 06:03:58;;;;;;;7.83;5.50;;;;;;;;;;4975184;28;20130;-60
2023/11/27 06:06:24;;;;;;;6.80;5.73;;;;;;;;;;4975427;28;20062;-60
2023/11/27 06:08:50;;;;;;;9.67;6.63;;;;;;;;;;4975251;28;20538;-59
2023/11/27 06:11:17;;;;;;;8.23;6.00;;;;;;;;;;4975135;28;20034;-60
2023/11/27 06:13:43;;;;;;;6.43;5.73;;;;;;;;;;4957903;28;20492;-59
2023/11/27 06:16:09;;;;;;;9.77;6.23;;;;;;;;;;4975019;28;20448;-58
2023/11/27 06:18:35;;;;;;;9.40;6.50;;;;;;;;;;4975118;28;20027;-59
2023/11/27 06:21:03;;;;;;;9.20;6.97;;;;;;;;;;4957624;28;20049;-59
2023/11/27 06:23:29;;;;;;;8.13;6.00;;;;;;;;;;4975104;28;20046;-59
2023/11/27 06:25:56;;;;;;;8.47;6.70;;;;;;;;;;4975179;28;20115;-59
2023/11/27 06:28:22;;;;;;;10.63;6.70;;;;;;;;;;4973768;28;20027;-59
2023/11/27 06:30:50;;;;;;;9.00;6.57;;;;;;;;;;4973727;28;20043;-59
2023/11/27 06:33:16;;;;;;;6.97;6.30;;;;;;;;;;4955776;28;20038;-59
2023/11/27 06:35:42;;;;;;;7.60;5.80;;;;;;;;;;4973601;28;20436;-59
2023/11/27 06:38:08;;;;;;;8.43;6.37;;;;;;;;;;4970849;28;20030;-57
2023/11/27 06:40:34;;;;;;;10.97;6.27;;;;;;;;;;4974662;28;20030;-58
2023/11/27 06:43:00;;;;;;;10.03;6.43;;;;;;;;;;4974484;28;20122;-58
2023/11/27 06:45:26;;;;;;;9.20;6.57;;;;;;;;;;4973341;28;20055;-61
2023/11/27 06:47:52;;;;;;;15.23;6.90;;;;;;;;;;4973063;28;20492;-62
2023/11/27 06:50:18;;;;;;;12.00;7.27;;;;;;;;;;4964500;28;20042;-62
2023/11/27 06:52:46;;;;;;;8.10;6.60;;;;;;;;;;4968170;28;20077;-62
2023/11/27 06:55:12;;;;;;;10.27;6.83;;;;;;;;;;4982370;28;20023;-62
2023/11/27 06:57:38;;;;;;;9.33;6.83;;;;;;;;;;4969825;28;20031;-62
2023/11/27 07:00:05;;;;;;;9.87;6.23;;;;;;;;;;4974724;28;20539;-62
2023/11/27 07:02:31;;;;;;;10.90;6.37;;;;;;;;;;4970496;28;20045;-62
2023/11/27 07:04:57;;;;;;;9.73;7.00;;;;;;;;;;4973073;28;20485;-61
2023/11/27 07:07:23;;;;;;;13.20;6.27;;;;;;;;;;4973601;28;20026;-61
2023/11/27 07:09:49;;;;;;;8.10;5.90;;;;;;;;;;4964477;28;20034;-58
2023/11/27 07:12:17;;;;;;;8.83;6.47;;;;;;;;;;4964701;28;20500;-59
2023/11/27 07:14:43;;;;;;;10.53;6.33;;;;;;;;;;4959185;28;20130;-58
2023/11/27 07:17:09;;;;;;;7.77;6.07;;;;;;;;;;4955999;28;20379;-59
2023/11/27 07:19:35;;;;;;;7.73;6.17;;;;;;;;;;4966168;28;20107;-57
2023/11/27 07:22:02;;;;;;;12.77;6.80;;;;;;;;;;4948076;28;20138;-57
2023/11/27 07:24:28;;;;;;;6.90;6.17;;;;;;;;;;4968163;28;20070;-61
2023/11/27 07:26:54;;;;;;;9.73;6.87;;;;;;;;;;4973985;28;20053;-61
2023/11/27 07:29:20;;;;;;;11.90;7.60;;;;;;;;;;4973818;28;20027;-61
2023/11/27 07:31:46;;;;;;;12.20;6.80;;;;;;;;;;4973618;28;20054;-61
2023/11/27 07:34:13;;;;;;;9.23;6.50;;;;;;;;;;4956467;28;20469;-61
2023/11/27 07:36:39;;;;;;;11.80;6.67;;;;;;;;;;4973917;28;20062;-61
2023/11/27 07:39:07;;;;;;;12.30;6.77;;;;;;;;;;4960567;28;20055;-61
2023/11/27 07:41:34;;;;;;;8.63;6.30;;;;;;;;;;4973924;28;20097;-62
2023/11/27 07:44:00;;;;;;;11.57;7.03;;;;;;;;;;4973710;28;20039;-61
2023/11/27 07:46:26;;;;;;;8.70;6.80;;;;;;;;;;4973901;28;20038;-62
2023/11/27 07:48:52;;;;;;;11.03;6.63;;;;;;;;;;4972826;28;20417;-61
2023/11/27 07:51:18;;;;;;;11.60;6.43;;;;;;;;;;4952156;29;20023;-57
2023/11/27 07:53:44;;;;;;;11.73;6.90;;;;;;;;;;4962007;28;20314;-67
2023/11/27 07:56:11;;;;;;;13.50;8.47;;;;;;;;;;4973786;28;20105;-69
2023/11/27 07:58:37;;;;;;;11.57;7.73;;;;;;;;;;4973902;28;20376;-70
2023/11/27 08:01:03;;;;;;;9.37;6.60;;;;;;;;;;4956496;28;20081;-60
2023/11/27 08:03:29;;;;;;;10.70;6.87;;;;;;;;;;4956022;28;20130;-58
2023/11/27 08:05:56;;;;;;;11.50;7.40;;;;;;;;;;4973409;28;20026;-59
2023/11/27 08:08:22;;;;;;;12.27;6.77;;;;;;;;;;4973634;28;20019;-51
2023/11/27 08:10:48;;;;;;;10.77;7.47;;;;;;;;;;4973433;28;20030;-58
2023/11/27 08:13:14;;;;;;;11.40;7.20;;;;;;;;;;4973548;28;20073;-66
2023/11/27 08:15:42;;;;;;;11.60;6.63;;;;;;;;;;4973491;28;20031;-49
2023/11/27 08:18:08;;;;;;;9.03;7.03;;;;;;;;;;4973351;28;20106;-61
2023/11/27 08:20:38;;;;;;;8.87;7.43;;;;;;;;;;4973153;28;20027;-60
2023/11/27 08:23:04;;;;;;;9.70;6.97;;;;;;;;;;4955861;28;20062;-58
2023/11/27 08:25:30;;;;;;;8.50;7.03;;;;;;;;;;4973356;28;20050;-56
2023/11/27 08:27:56;;;;;;;12.70;6.93;;;;;;;;;;4972745;28;20030;-65
2023/11/27 08:30:24;;;;;;;10.83;7.13;;;;;;;;;;4973166;28;20089;-65
2023/11/27 08:32:50;;;;;;;10.40;7.33;;;;;;;;;;4973109;28;20110;-66
2023/11/27 08:35:17;;;;;;;10.07;7.63;;;;;;;;;;4972859;28;20027;-65
2023/11/27 08:37:43;;;;;;;12.37;8.20;;;;;;;;;;4955632;28;20176;-65
2023/11/27 08:40:12;;;;;;;8.43;6.80;;;;;;;;;;4973114;28;20380;-65
2023/11/27 08:42:38;;;;;;;8.73;7.20;;;;;;;;;;4972921;28;20511;-65
2023/11/27 08:45:10;;;;;;;12.57;7.83;;;;;;;;;;4978687;28;20029;-65
2023/11/27 08:47:39;;;;;;;10.17;7.23;;;;;;;;;;4973248;28;20027;-66
2023/11/27 08:50:07;;;;;;;10.40;7.33;;;;;;;;;;4973140;28;20061;-65
2023/11/27 08:52:33;;;;;;;7.23;6.47;;;;;;;;;;4964544;28;20026;-65
2023/11/27 08:54:59;;;;;;;13.33;6.97;;;;;;;;;;4962799;28;20023;-65
2023/11/27 08:57:25;;;;;;;10.37;6.97;;;;;;;;;;4972909;28;20122;-65
2023/11/27 08:59:51;;;;;;;11.57;7.50;;;;;;;;;;4973777;28;20133;-66
2023/11/27 09:02:17;;;;;;;11.50;7.20;;;;;;;;;;4954417;28;20023;-65
2023/11/27 09:04:43;;;;;;;10.73;7.10;;;;;;;;;;4970289;28;20126;-65
2023/11/27 09:07:11;;;;;;;11.43;6.33;;;;;;;;;;4976574;28;20469;-66
2023/11/27 09:09:38;;;;;;;16.13;7.77;;;;;;;;;;4973106;28;20034;-65
2023/11/27 09:12:04;;;;;;;12.80;8.13;;;;;;;;;;4974674;28;20413;-65
2023/11/27 09:14:31;;;;;;;12.37;7.83;;;;;;;;;;4976863;28;20033;-66
2023/11/27 09:16:59;;;;;;;10.90;8.57;;;;;;;;;;4976450;28;20019;-65
2023/11/27 09:19:26;;;;;;;9.77;7.70;;;;;;;;;;4975170;28;20516;-66
2023/11/27 09:21:53;;;;;;;12.47;7.87;;;;;;;;;;4976429;28;20034;-65
2023/11/27 09:24:19;;;;;;;15.57;7.77;;;;;;;;;;4974637;28;20038;-65
2023/11/27 09:26:45;;;;;;;14.47;7.67;;;;;;;;;;4976491;28;20030;-65
2023/11/27 09:29:11;;;;;;;12.57;7.63;;;;;;;;;;4976275;28;20076;-65
2023/11/27 09:31:37;;;;;;;12.97;7.67;;;;;;;;;;4976236;28;20067;-65
2023/11/27 09:34:03;;;;;;;13.80;8.30;;;;;;;;;;4976440;28;20030;-65
2023/11/27 09:36:30;;;;;;;11.17;7.60;;;;;;;;;;4976465;28;20030;-65
2023/11/27 09:38:56;;;;;;;13.93;8.60;;;;;;;;;;4976297;28;20030;-64
2023/11/27 09:41:22;;;;;;;19.13;9.87;;;;;;;;;;4976478;28;20019;-65
2023/11/27 09:43:48;;;;;;;16.57;10.90;;;;;;;;;;4976165;28;20038;-64
2023/11/27 09:46:18;;;;;;;16.60;11.00;;;;;;;;;;4958967;28;20025;-64
2023/11/27 09:48:44;;;;;;;15.10;11.17;;;;;;;;;;4976361;28;20038;-65
2023/11/27 09:51:14;;;;;;;16.03;10.83;;;;;;;;;;4975977;28;20035;-64
2023/11/27 09:53:51;;;;;;;20.67;11.10;;;;;;;;;;4976049;28;20428;-64
2023/11/27 09:56:17;;;;;;;15.70;10.70;;;;;;;;;;4975971;28;20023;-65
2023/11/27 09:58:45;;;;;;;15.83;10.90;;;;;;;;;;4976361;28;20027;-65
2023/11/27 10:01:11;;;;;;;12.93;10.50;;;;;;;;;;4975697;28;20052;-65
2023/11/27 10:03:38;;;;;;;14.87;10.97;;;;;;;;;;4975794;28;20122;-65
2023/11/27 10:06:08;;;;;;;17.00;10.77;;;;;;;;;;4975595;28;20085;-64
2023/11/27 10:08:35;;;;;;;10.53;9.47;;;;;;;;;;4942437;28;20038;-65
2023/11/27 10:11:01;;;;;;;13.33;10.17;;;;;;;;;;4977732;28;20023;-65
2023/11/27 10:13:34;;;;;;;18.87;10.63;;;;;;;;;;4975695;28;20031;-64
2023/11/27 10:16:02;;;;;;;14.83;11.13;;;;;;;;;;4975931;28;20052;-64
2023/11/27 10:18:28;;;;;;;17.40;12.07;;;;;;;;;;4958265;28;20030;-64
2023/11/27 10:20:54;;;;;;;18.87;13.13;;;;;;;;;;4975568;28;20031;-64
2023/11/27 10:23:23;;;;;;;17.57;14.37;;;;;;;;;;4957970;28;20047;-64
2023/11/27 10:25:59;;;;;;;15.83;12.90;;;;;;;;;;4975273;28;20101;-64
2023/11/27 10:28:40;;;;;;;21.67;14.13;;;;;;;;;;4975448;28;20041;-64
2023/11/27 10:31:06;;;;;;;17.80;13.87;;;;;;;;;;4975115;28;20042;-64
2023/11/27 10:33:33;;;;;;;14.63;12.83;;;;;;;;;;4974855;28;20101;-65
2023/11/27 10:35:59;;;;;;;18.80;12.10;;;;;;;;;;4975325;28;20034;-64
2023/11/27 10:38:25;;;;;;;15.30;11.10;;;;;;;;;;4975427;28;20423;-64
2023/11/27 10:40:51;;;;;;;16.83;10.57;;;;;;;;;;4975238;28;20027;-66
2023/11/27 10:43:19;;;;;;;12.20;10.13;;;;;;;;;;4975209;28;20046;-65
2023/11/27 10:45:46;;;;;;;13.53;11.53;;;;;;;;;;4975286;28;20384;-65
2023/11/27 10:48:13;;;;;;;13.90;11.47;;;;;;;;;;4975251;28;20042;-65
2023/11/27 10:50:41;;;;;;;18.47;10.83;;;;;;;;;;4975144;28;20030;-65
2023/11/27 10:53:08;;;;;;;17.97;12.83;;;;;;;;;;4974825;28;20085;-64
2023/11/27 10:55:34;;;;;;;16.87;12.47;;;;;;;;;;4971999;28;20088;-66
2023/11/27 10:58:03;;;;;;;16.17;12.43;;;;;;;;;;4971199;28;20031;-65
2023/11/27 11:03:33;;;;;;;15.93;12.10;;;;;;;;;;4963989;28;20050;-65
2023/11/27 11:06:00;;;;;;;14.13;11.73;;;;;;;;;;4954563;28;20526;-65
2023/11/27 11:08:27;;;;;;;13.40;10.63;;;;;;;;;;4970782;28;20105;-65
2023/11/27 11:10:55;;;;;;;12.30;9.23;;;;;;;;;;4971674;28;20110;-65
2023/11/27 11:13:22;;;;;;;11.80;9.40;;;;;;;;;;4971179;28;20091;-65
2023/11/27 11:15:51;;;;;;;11.53;9.77;;;;;;;;;;4968263;28;20046;-65
2023/11/27 11:18:36;;;;;;;10.73;8.40;;;;;;;;;;4971308;28;20026;-65
2023/11/27 11:21:17;;;;;;;13.95;9.93;;;;;;;;;;4970088;28;20057;-64
2023/11/27 11:23:55;;;;;;;11.97;9.67;;;;;;;;;;4972665;28;20105;-65
2023/11/27 11:26:39;;;;;;;11.13;9.67;;;;;;;;;;4972596;28;20027;-65
2023/11/27 11:29:14;;;;;;;10.43;8.77;;;;;;;;;;4968773;28;20058;-65
2023/11/27 11:31:49;;;;;;;9.35;8.38;;;;;;;;;;4973889;28;20555;-65
2023/11/27 11:34:23;;;;;;;11.77;8.17;;;;;;;;;;4974100;28;20480;-65
2023/11/27 11:36:57;;;;;;;12.37;9.00;;;;;;;;;;4956400;28;20051;-65
2023/11/27 11:39:26;;;;;;;10.20;8.27;;;;;;;;;;4962966;28;20026;-65
2023/11/27 11:42:01;;;;;;;11.87;9.53;;;;;;;;;;4953994;28;20034;-66
2023/11/27 11:44:28;;;;;;;11.90;9.23;;;;;;;;;;4953766;28;20039;-65
2023/11/27 11:46:54;;;;;;;10.03;8.37;;;;;;;;;;4954353;28;20078;-65
2023/11/27 11:49:28;;;;;;;11.23;9.10;;;;;;;;;;4957813;28;20097;-65
2023/11/27 11:52:15;;;;;;;10.80;9.02;;;;;;;;;;4968963;28;20023;-65
2023/11/27 11:54:41;;;;;;;10.43;7.90;;;;;;;;;;4973915;28;20050;-65
2023/11/27 11:57:23;;;;;;;10.93;8.27;;;;;;;;;;4973750;28;20109;-65
2023/11/27 11:59:50;;;;;;;9.33;7.17;;;;;;;;;;4973628;28;20027;-65
2023/11/27 12:02:20;;;;;;;9.03;7.80;;;;;;;;;;4973526;28;20023;-65
2023/11/27 12:04:51;;;;;;;8.87;7.13;;;;;;;;;;4966947;28;20041;-65
2023/11/27 12:07:17;;;;;;;11.10;8.93;;;;;;;;;;4985162;28;20018;-65
2023/11/27 12:09:44;;;;;;;10.73;8.73;;;;;;;;;;4973454;28;20548;-65
2023/11/27 12:12:15;;;;;;;8.83;7.83;;;;;;;;;;4973470;28;20025;-64
2023/11/27 12:14:41;;;;;;;9.90;8.40;;;;;;;;;;4973686;28;20031;-65
2023/11/27 12:17:07;;;;;;;11.50;7.97;;;;;;;;;;4973159;28;20023;-65
2023/11/27 12:19:36;;;;;;;10.07;7.80;;;;;;;;;;4973432;28;20421;-64
2023/11/27 12:22:04;;;;;;;9.97;7.93;;;;;;;;;;4973268;28;20082;-65
2023/11/27 12:24:30;;;;;;;10.67;7.57;;;;;;;;;;4972998;28;20035;-64
2023/11/27 12:26:56;;;;;;;10.47;7.00;;;;;;;;;;4973242;28;20027;-64
2023/11/27 12:29:22;;;;;;;12.37;7.60;;;;;;;;;;4959986;28;20460;-64
2023/11/27 12:31:53;;;;;;;9.83;7.70;;;;;;;;;;4971443;28;20109;-65
2023/11/27 12:34:24;;;;;;;9.33;6.33;;;;;;;;;;4972522;28;20034;-65
2023/11/27 12:36:51;;;;;;;9.50;6.40;;;;;;;;;;4973055;28;20022;-66
2023/11/27 12:39:25;;;;;;;7.93;6.27;;;;;;;;;;4972999;28;20077;-65
2023/11/27 12:41:51;;;;;;;10.60;7.13;;;;;;;;;;4955016;28;20114;-65
2023/11/27 12:44:20;;;;;;;9.43;7.67;;;;;;;;;;4972930;28;20490;-64
2023/11/27 12:46:48;;;;;;;10.03;7.40;;;;;;;;;;4972725;28;20023;-65
2023/11/27 12:49:18;;;;;;;12.13;7.10;;;;;;;;;;4973016;28;20055;-64
2023/11/27 12:51:45;;;;;;;12.60;8.27;;;;;;;;;;4972898;28;20465;-65
2023/11/27 12:54:21;;;;;;;10.60;8.07;;;;;;;;;;4972713;28;20027;-65
2023/11/27 12:56:51;;;;;;;8.63;7.03;;;;;;;;;;4973259;28;20027;-64
2023/11/27 12:59:17;;;;;;;11.13;8.03;;;;;;;;;;4972783;28;20023;-65
2023/11/27 13:01:59;;;;;;;11.93;8.60;;;;;;;;;;4972861;28;20030;-64
2023/11/27 13:04:36;;;;;;;11.30;8.53;;;;;;;;;;4972779;28;20046;-64
2023/11/27 13:07:09;;;;;;;9.63;8.10;;;;;;;;;;4973079;28;20019;-64
2023/11/27 13:09:35;;;;;;;12.60;9.37;;;;;;;;;;4972936;28;20430;-64
2023/11/27 13:12:15;;;;;;;12.20;8.40;;;;;;;;;;4972776;28;20097;-64
2023/11/27 13:14:49;;;;;;;12.13;8.20;;;;;;;;;;4972820;28;20031;-64
2023/11/27 13:17:22;;;;;;;10.50;7.63;;;;;;;;;;4972715;28;20042;-64
2023/11/27 13:19:55;;;;;;;10.80;7.77;;;;;;;;;;4972635;28;20520;-64
2023/11/27 13:22:31;;;;;;;8.80;7.33;;;;;;;;;;4972910;28;20423;-64
2023/11/27 13:24:57;;;;;;;9.53;7.87;;;;;;;;;;4972796;28;20039;-65
2023/11/27 13:27:24;;;;;;;11.43;8.10;;;;;;;;;;4971378;28;20045;-65
2023/11/27 13:29:50;;;;;;;11.17;7.50;;;;;;;;;;4972541;28;20050;-64
2023/11/27 13:32:17;;;;;;;12.13;7.93;;;;;;;;;;4959580;28;20023;-64
2023/11/27 13:34:54;;;;;;;10.73;7.67;;;;;;;;;;4972508;28;20089;-65
2023/11/27 13:37:22;;;;;;;9.90;7.50;;;;;;;;;;4959238;28;20030;-65
2023/11/27 13:39:57;;;;;;;12.10;8.57;;;;;;;;;;4972612;28;20022;-65
2023/11/27 13:42:23;;;;;;;9.50;7.53;;;;;;;;;;4972560;28;20544;-65
2023/11/27 13:44:50;;;;;;;11.20;7.87;;;;;;;;;;4972849;28;20110;-65
2023/11/27 13:47:22;;;;;;;9.87;7.50;;;;;;;;;;4977354;28;20072;-65
2023/11/27 13:49:49;;;;;;;13.83;7.77;;;;;;;;;;4967294;28;20034;-65
2023/11/27 13:52:17;;;;;;;10.80;6.80;;;;;;;;;;4975967;28;20523;-64
2023/11/27 13:54:44;;;;;;;10.23;7.33;;;;;;;;;;4975965;28;20019;-64
2023/11/27 13:57:11;;;;;;;12.33;8.20;;;;;;;;;;4975965;28;20401;-65
2023/11/27 13:59:38;;;;;;;12.03;8.47;;;;;;;;;;4975982;28;20018;-65
2023/11/27 14:02:10;;;;;;;15.07;9.33;;;;;;;;;;4958459;28;20037;-65
2023/11/27 14:04:54;;;;;;;13.40;8.40;;;;;;;;;;4958166;28;20448;-65
2023/11/27 14:07:20;;;;;;;10.87;8.30;;;;;;;;;;4975933;28;20059;-65
2023/11/27 14:12:15;;;;;;;13.00;9.40;;;;;;;;;;4975992;28;20034;-65
2023/11/27 14:14:41;;;;;;;12.30;8.80;;;;;;;;;;4975639;28;20030;-64
2023/11/27 14:17:19;;;;;;;11.60;8.40;;;;;;;;;;4975623;28;20015;-65
2023/11/27 14:25:26;;;;;;;16.70;10.10;;;;;;;;;;4975683;28;20163;-65
2023/11/27 14:28:11;;;;;;;14.30;9.67;;;;;;;;;;4975318;28;20560;-65
2023/11/27 14:30:35;;;;;;;12.30;8.87;;;;;;;;;;4961937;28;20050;-64
2023/11/27 14:33:01;;;;;;;12.03;9.03;;;;;;;;;;4975231;28;20052;-65
2023/11/27 14:35:27;;;;;;;11.07;9.10;;;;;;;;;;4975196;28;20058;-65
2023/11/27 14:37:54;;;;;;;13.50;9.33;;;;;;;;;;4975219;28;20373;-64
2023/11/27 14:40:21;;;;;;;10.90;9.80;;;;;;;;;;4975029;28;20030;-64
2023/11/27 14:42:47;;;;;;;14.80;10.00;;;;;;;;;;4957608;28;20322;-64
2023/11/27 14:45:14;;;;;;;12.23;9.07;;;;;;;;;;4974877;28;20093;-64